sensor_id;sensor_type;location;lat;lon;timestamp;temperature;humidity
5459;DHT22;2752;49.992;8.422;2023-05-07T00:01:04;16.60;1.00
5459;DHT22;2752;49.992;8.422;2023-05-07T00:03:32;16.50;1.00
5459;DHT22;2752;49.992;8.422;2023-05-07T00:05:59;16.50;1.00
5459;DHT22;2752;49.992;8.422;2023-05-07T00:08:26;16.40;1.00
5459;DHT22;2752;49.992;8.422;2023-05-07T00:10:53;16.40;1.00
5459;DHT22;2752;49.992;8.422;2023-05-07T00:13:21;16.40;1.00
5459;DHT22;2752;49.992;8.422;2023-05-07T00:15:48;16.40;1.00
5459;DHT22;2752;49.992;8.422;2023-05-07T00:18:15;16.40;1.00
5459;DHT22;2752;49.992;8.422;2023-05-07T00:20:42;16.30;1.00
5459;DHT22;2752;49.992;8.422;2023-05-07T00:23:09;16.30;1.00
5459;DHT22;2752;49.992;8.422;2023-05-07T00:25:35;16.30;1.00
5459;DHT22;2752;49.992;8.422;2023-05-07T00:28:03;16.30;1.00
5459;DHT22;2752;49.992;8.422;2023-05-07T00:30:32;16.20;1.00
5459;DHT22;2752;49.992;8.422;2023-05-07T00:33:00;16.20;1.00
5459;DHT22;2752;49.992;8.422;2023-05-07T00:35:27;16.30;1.00
5459;DHT22;2752;49.992;8.422;2023-05-07T00:37:54;16.30;1.00
5459;DHT22;2752;49.992;8.422;2023-05-07T00:40:21;16.30;1.00
5459;DHT22;2752;49.992;8.422;2023-05-07T00:42:48;16.40;1.00
5459;DHT22;2752;49.992;8.422;2023-05-07T00:45:16;16.30;1.00
5459;DHT22;2752;49.992;8.422;2023-05-07T00:47:44;16.40;1.00
5459;DHT22;2752;49.992;8.422;2023-05-07T00:50:12;16.30;1.00
5459;DHT22;2752;49.992;8.422;2023-05-07T00:52:42;16.30;1.00
5459;DHT22;2752;49.992;8.422;2023-05-07T00:55:10;16.30;1.00
5459;DHT22;2752;49.992;8.422;2023-05-07T00:57:37;16.30;1.00
5459;DHT22;2752;49.992;8.422;2023-05-07T01:00:07;16.30;1.00
5459;DHT22;2752;49.992;8.422;2023-05-07T01:02:35;16.30;1.00
5459;DHT22;2752;49.992;8.422;2023-05-07T01:05:06;16.30;1.00
5459;DHT22;2752;49.992;8.422;2023-05-07T01:07:34;16.20;1.00
5459;DHT22;2752;49.992;8.422;2023-05-07T01:10:03;16.30;1.00
5459;DHT22;2752;49.992;8.422;2023-05-07T01:12:31;16.20;1.00
5459;DHT22;2752;49.992;8.422;2023-05-07T01:14:59;16.20;1.00
5459;DHT22;2752;49.992;8.422;2023-05-07T01:17:26;16.20;1.00
5459;DHT22;2752;49.992;8.422;2023-05-07T01:19:53;16.30;1.00
5459;DHT22;2752;49.992;8.422;2023-05-07T01:22:29;16.30;1.00
5459;DHT22;2752;49.992;8.422;2023-05-07T01:24:57;16.30;1.00
5459;DHT22;2752;49.992;8.422;2023-05-07T01:27:26;16.30;1.00
5459;DHT22;2752;49.992;8.422;2023-05-07T01:29:52;16.30;1.00
5459;DHT22;2752;49.992;8.422;2023-05-07T01:32:29;16.20;1.00
5459;DHT22;2752;49.992;8.422;2023-05-07T01:34:57;16.20;1.00
5459;DHT22;2752;49.992;8.422;2023-05-07T01:37:28;16.10;1.00
5459;DHT22;2752;49.992;8.422;2023-05-07T01:39:55;16.10;1.00
5459;DHT22;2752;49.992;8.422;2023-05-07T01:42:22;16.10;1.00
5459;DHT22;2752;49.992;8.422;2023-05-07T01:44:49;16.10;1.00
5459;DHT22;2752;49.992;8.422;2023-05-07T01:47:17;16.10;1.00
5459;DHT22;2752;49.992;8.422;2023-05-07T01:49:43;16.10;1.00
5459;DHT22;2752;49.992;8.422;2023-05-07T01:52:10;16.10;1.00
5459;DHT22;2752;49.992;8.422;2023-05-07T01:54:39;16.10;1.00
5459;DHT22;2752;49.992;8.422;2023-05-07T01:57:06;16.10;1.00
5459;DHT22;2752;49.992;8.422;2023-05-07T01:59:33;16.10;1.00
5459;DHT22;2752;49.992;8.422;2023-05-07T02:02:00;16.10;1.00
5459;DHT22;2752;49.992;8.422;2023-05-07T02:04:27;16.10;1.00
5459;DHT22;2752;49.992;8.422;2023-05-07T02:06:53;16.10;1.00
5459;DHT22;2752;49.992;8.422;2023-05-07T02:09:21;16.10;1.00
5459;DHT22;2752;49.992;8.422;2023-05-07T02:11:49;16.10;1.00
5459;DHT22;2752;49.992;8.422;2023-05-07T02:14:16;16.10;1.00
5459;DHT22;2752;49.992;8.422;2023-05-07T02:16:43;16.10;1.00
5459;DHT22;2752;49.992;8.422;2023-05-07T02:19:10;16.10;1.00
5459;DHT22;2752;49.992;8.422;2023-05-07T02:21:37;16.10;1.00
5459;DHT22;2752;49.992;8.422;2023-05-07T02:24:04;16.10;1.00
5459;DHT22;2752;49.992;8.422;2023-05-07T02:26:31;16.10;1.00
5459;DHT22;2752;49.992;8.422;2023-05-07T02:28:59;16.20;1.00
5459;DHT22;2752;49.992;8.422;2023-05-07T02:31:26;16.10;1.00
5459;DHT22;2752;49.992;8.422;2023-05-07T02:33:53;16.10;1.00
5459;DHT22;2752;49.992;8.422;2023-05-07T02:36:20;16.10;1.00
5459;DHT22;2752;49.992;8.422;2023-05-07T02:38:46;16.20;1.00
5459;DHT22;2752;49.992;8.422;2023-05-07T02:41:14;16.20;1.00
5459;DHT22;2752;49.992;8.422;2023-05-07T02:43:41;16.20;1.00
5459;DHT22;2752;49.992;8.422;2023-05-07T02:46:09;16.20;1.00
5459;DHT22;2752;49.992;8.422;2023-05-07T02:48:36;16.20;1.00
5459;DHT22;2752;49.992;8.422;2023-05-07T02:51:04;16.20;1.00
5459;DHT22;2752;49.992;8.422;2023-05-07T02:53:31;16.20;1.00
5459;DHT22;2752;49.992;8.422;2023-05-07T02:55:59;16.20;1.00
5459;DHT22;2752;49.992;8.422;2023-05-07T02:58:27;16.20;1.00
5459;DHT22;2752;49.992;8.422;2023-05-07T03:00:53;16.20;1.00
5459;DHT22;2752;49.992;8.422;2023-05-07T03:03:22;16.20;1.00
5459;DHT22;2752;49.992;8.422;2023-05-07T03:05:49;16.10;1.00
5459;DHT22;2752;49.992;8.422;2023-05-07T03:08:16;16.10;1.00
5459;DHT22;2752;49.992;8.422;2023-05-07T03:10:42;16.20;1.00
5459;DHT22;2752;49.992;8.422;2023-05-07T03:13:09;16.20;1.00
5459;DHT22;2752;49.992;8.422;2023-05-07T03:15:36;16.20;1.00
5459;DHT22;2752;49.992;8.422;2023-05-07T03:18:03;16.20;1.00
5459;DHT22;2752;49.992;8.422;2023-05-07T03:20:31;16.10;1.00
5459;DHT22;2752;49.992;8.422;2023-05-07T03:22:57;16.10;1.00
5459;DHT22;2752;49.992;8.422;2023-05-07T03:25:24;16.10;1.00
5459;DHT22;2752;49.992;8.422;2023-05-07T03:27:51;16.10;1.00
5459;DHT22;2752;49.992;8.422;2023-05-07T03:30:18;16.10;1.00
5459;DHT22;2752;49.992;8.422;2023-05-07T03:32:45;16.10;1.00
5459;DHT22;2752;49.992;8.422;2023-05-07T03:35:12;16.10;1.00
5459;DHT22;2752;49.992;8.422;2023-05-07T03:37:40;16.20;1.00
5459;DHT22;2752;49.992;8.422;2023-05-07T03:40:07;16.20;1.00
5459;DHT22;2752;49.992;8.422;2023-05-07T03:42:35;16.20;1.00
5459;DHT22;2752;49.992;8.422;2023-05-07T03:45:02;16.20;1.00
5459;DHT22;2752;49.992;8.422;2023-05-07T03:47:29;16.20;1.00
5459;DHT22;2752;49.992;8.422;2023-05-07T03:49:56;16.10;1.00
5459;DHT22;2752;49.992;8.422;2023-05-07T03:52:23;16.10;1.00
5459;DHT22;2752;49.992;8.422;2023-05-07T03:54:52;16.20;1.00
5459;DHT22;2752;49.992;8.422;2023-05-07T03:57:19;16.10;1.00
5459;DHT22;2752;49.992;8.422;2023-05-07T03:59:46;16.10;1.00
5459;DHT22;2752;49.992;8.422;2023-05-07T04:02:12;16.00;1.00
5459;DHT22;2752;49.992;8.422;2023-05-07T04:04:39;16.00;1.00
5459;DHT22;2752;49.992;8.422;2023-05-07T04:07:06;16.00;1.00
5459;DHT22;2752;49.992;8.422;2023-05-07T04:09:32;16.00;1.00
5459;DHT22;2752;49.992;8.422;2023-05-07T04:12:00;16.00;1.00
5459;DHT22;2752;49.992;8.422;2023-05-07T04:14:27;16.00;1.00
5459;DHT22;2752;49.992;8.422;2023-05-07T04:16:54;16.00;1.00
5459;DHT22;2752;49.992;8.422;2023-05-07T04:19:20;16.00;1.00
5459;DHT22;2752;49.992;8.422;2023-05-07T04:21:47;16.10;1.00
5459;DHT22;2752;49.992;8.422;2023-05-07T04:24:14;16.00;1.00
5459;DHT22;2752;49.992;8.422;2023-05-07T04:26:41;16.10;1.00
5459;DHT22;2752;49.992;8.422;2023-05-07T04:29:09;16.10;1.00
5459;DHT22;2752;49.992;8.422;2023-05-07T04:31:35;16.10;1.00
5459;DHT22;2752;49.992;8.422;2023-05-07T04:34:02;16.10;1.00
5459;DHT22;2752;49.992;8.422;2023-05-07T04:36:29;16.00;1.00
5459;DHT22;2752;49.992;8.422;2023-05-07T04:38:55;16.00;1.00
5459;DHT22;2752;49.992;8.422;2023-05-07T04:41:22;16.00;1.00
5459;DHT22;2752;49.992;8.422;2023-05-07T04:43:48;16.10;1.00
5459;DHT22;2752;49.992;8.422;2023-05-07T04:46:16;16.00;1.00
5459;DHT22;2752;49.992;8.422;2023-05-07T04:48:43;16.00;1.00
5459;DHT22;2752;49.992;8.422;2023-05-07T04:51:10;16.00;1.00
5459;DHT22;2752;49.992;8.422;2023-05-07T04:53:37;16.00;1.00
5459;DHT22;2752;49.992;8.422;2023-05-07T04:56:04;16.00;1.00
5459;DHT22;2752;49.992;8.422;2023-05-07T04:58:30;16.10;1.00
5459;DHT22;2752;49.992;8.422;2023-05-07T05:00:57;16.10;1.00
5459;DHT22;2752;49.992;8.422;2023-05-07T05:03:25;16.10;1.00
5459;DHT22;2752;49.992;8.422;2023-05-07T05:05:52;16.20;1.00
5459;DHT22;2752;49.992;8.422;2023-05-07T05:08:19;16.20;1.00
5459;DHT22;2752;49.992;8.422;2023-05-07T05:10:45;16.30;1.00
5459;DHT22;2752;49.992;8.422;2023-05-07T05:13:14;16.30;1.00
5459;DHT22;2752;49.992;8.422;2023-05-07T05:15:40;16.30;1.00
5459;DHT22;2752;49.992;8.422;2023-05-07T05:18:07;16.30;1.00
5459;DHT22;2752;49.992;8.422;2023-05-07T05:20:35;16.30;1.00
5459;DHT22;2752;49.992;8.422;2023-05-07T05:23:02;16.40;1.00
5459;DHT22;2752;49.992;8.422;2023-05-07T05:25:28;16.40;1.00
5459;DHT22;2752;49.992;8.422;2023-05-07T05:27:55;16.50;1.00
5459;DHT22;2752;49.992;8.422;2023-05-07T05:30:22;16.50;1.00
5459;DHT22;2752;49.992;8.422;2023-05-07T05:32:48;16.50;1.00
5459;DHT22;2752;49.992;8.422;2023-05-07T05:35:15;16.50;1.00
5459;DHT22;2752;49.992;8.422;2023-05-07T05:37:43;16.50;1.00
5459;DHT22;2752;49.992;8.422;2023-05-07T05:40:10;16.50;1.00
5459;DHT22;2752;49.992;8.422;2023-05-07T05:42:37;16.50;1.00
5459;DHT22;2752;49.992;8.422;2023-05-07T05:45:05;16.60;1.00
5459;DHT22;2752;49.992;8.422;2023-05-07T05:47:31;16.60;1.00
5459;DHT22;2752;49.992;8.422;2023-05-07T05:49:58;16.70;1.00
5459;DHT22;2752;49.992;8.422;2023-05-07T05:52:25;16.70;1.00
5459;DHT22;2752;49.992;8.422;2023-05-07T05:54:53;16.70;1.00
5459;DHT22;2752;49.992;8.422;2023-05-07T05:57:20;16.90;1.00
5459;DHT22;2752;49.992;8.422;2023-05-07T05:59:47;16.90;1.00
5459;DHT22;2752;49.992;8.422;2023-05-07T06:02:13;16.90;1.00
5459;DHT22;2752;49.992;8.422;2023-05-07T06:04:40;17.00;1.00
5459;DHT22;2752;49.992;8.422;2023-05-07T06:07:07;16.90;1.00
5459;DHT22;2752;49.992;8.422;2023-05-07T06:09:34;17.00;1.00
5459;DHT22;2752;49.992;8.422;2023-05-07T06:12:02;17.00;1.00
5459;DHT22;2752;49.992;8.422;2023-05-07T06:14:29;17.10;1.00
5459;DHT22;2752;49.992;8.422;2023-05-07T06:16:56;17.20;1.00
5459;DHT22;2752;49.992;8.422;2023-05-07T06:19:23;17.20;1.00
5459;DHT22;2752;49.992;8.422;2023-05-07T06:21:51;17.10;1.00
5459;DHT22;2752;49.992;8.422;2023-05-07T06:24:18;17.10;1.00
5459;DHT22;2752;49.992;8.422;2023-05-07T06:26:45;17.20;1.00
5459;DHT22;2752;49.992;8.422;2023-05-07T06:29:13;17.10;1.00
5459;DHT22;2752;49.992;8.422;2023-05-07T06:31:40;17.20;1.00
5459;DHT22;2752;49.992;8.422;2023-05-07T06:34:07;17.30;1.00
5459;DHT22;2752;49.992;8.422;2023-05-07T06:36:34;17.40;1.00
5459;DHT22;2752;49.992;8.422;2023-05-07T06:39:00;17.30;1.00
5459;DHT22;2752;49.992;8.422;2023-05-07T06:41:27;17.40;1.00
5459;DHT22;2752;49.992;8.422;2023-05-07T06:43:54;17.50;1.00
5459;DHT22;2752;49.992;8.422;2023-05-07T06:46:22;17.60;1.00
5459;DHT22;2752;49.992;8.422;2023-05-07T06:48:48;17.60;1.00
5459;DHT22;2752;49.992;8.422;2023-05-07T06:51:15;17.60;1.00
5459;DHT22;2752;49.992;8.422;2023-05-07T06:53:42;17.60;1.00
5459;DHT22;2752;49.992;8.422;2023-05-07T06:56:08;17.80;1.00
5459;DHT22;2752;49.992;8.422;2023-05-07T06:58:35;17.80;1.00
5459;DHT22;2752;49.992;8.422;2023-05-07T07:01:02;17.90;1.00
5459;DHT22;2752;49.992;8.422;2023-05-07T07:03:30;17.90;1.00
5459;DHT22;2752;49.992;8.422;2023-05-07T07:05:56;17.90;1.00
5459;DHT22;2752;49.992;8.422;2023-05-07T07:08:23;18.10;1.00
5459;DHT22;2752;49.992;8.422;2023-05-07T07:10:50;18.00;1.00
5459;DHT22;2752;49.992;8.422;2023-05-07T07:13:16;18.00;1.00
5459;DHT22;2752;49.992;8.422;2023-05-07T07:15:43;18.00;1.00
5459;DHT22;2752;49.992;8.422;2023-05-07T07:18:10;18.00;1.00
5459;DHT22;2752;49.992;8.422;2023-05-07T07:20:38;18.00;1.00
5459;DHT22;2752;49.992;8.422;2023-05-07T07:23:05;18.00;1.00
5459;DHT22;2752;49.992;8.422;2023-05-07T07:25:31;18.00;1.00
5459;DHT22;2752;49.992;8.422;2023-05-07T07:27:59;18.00;1.00
5459;DHT22;2752;49.992;8.422;2023-05-07T07:30:25;17.90;1.00
5459;DHT22;2752;49.992;8.422;2023-05-07T07:32:52;18.10;1.00
5459;DHT22;2752;49.992;8.422;2023-05-07T07:35:19;18.10;1.00
5459;DHT22;2752;49.992;8.422;2023-05-07T07:37:47;18.10;1.00
5459;DHT22;2752;49.992;8.422;2023-05-07T07:40:15;18.10;1.00
5459;DHT22;2752;49.992;8.422;2023-05-07T07:42:42;18.10;1.00
5459;DHT22;2752;49.992;8.422;2023-05-07T07:45:08;18.10;1.00
5459;DHT22;2752;49.992;8.422;2023-05-07T07:47:35;18.20;1.00
5459;DHT22;2752;49.992;8.422;2023-05-07T07:50:02;18.20;1.00
5459;DHT22;2752;49.992;8.422;2023-05-07T07:52:29;18.30;1.00
5459;DHT22;2752;49.992;8.422;2023-05-07T07:54:57;18.40;1.00
5459;DHT22;2752;49.992;8.422;2023-05-07T07:57:23;18.30;1.00
5459;DHT22;2752;49.992;8.422;2023-05-07T07:59:50;18.40;1.00
5459;DHT22;2752;49.992;8.422;2023-05-07T08:02:17;18.30;1.00
5459;DHT22;2752;49.992;8.422;2023-05-07T08:04:44;18.30;1.00
5459;DHT22;2752;49.992;8.422;2023-05-07T08:07:11;18.40;1.00
5459;DHT22;2752;49.992;8.422;2023-05-07T08:09:38;18.40;1.00
5459;DHT22;2752;49.992;8.422;2023-05-07T08:12:06;18.40;1.00
5459;DHT22;2752;49.992;8.422;2023-05-07T08:14:33;18.50;1.00
5459;DHT22;2752;49.992;8.422;2023-05-07T08:17:00;18.50;1.00
5459;DHT22;2752;49.992;8.422;2023-05-07T08:19:27;18.60;1.00
5459;DHT22;2752;49.992;8.422;2023-05-07T08:21:53;18.70;1.00
5459;DHT22;2752;49.992;8.422;2023-05-07T08:24:20;18.70;1.00
5459;DHT22;2752;49.992;8.422;2023-05-07T08:26:47;18.90;1.00
5459;DHT22;2752;49.992;8.422;2023-05-07T08:29:16;18.90;1.00
5459;DHT22;2752;49.992;8.422;2023-05-07T08:31:42;19.10;1.00
5459;DHT22;2752;49.992;8.422;2023-05-07T08:34:09;19.20;1.00
5459;DHT22;2752;49.992;8.422;2023-05-07T08:36:36;19.30;1.00
5459;DHT22;2752;49.992;8.422;2023-05-07T08:39:03;19.30;1.00
5459;DHT22;2752;49.992;8.422;2023-05-07T08:41:30;19.30;1.00
5459;DHT22;2752;49.992;8.422;2023-05-07T08:43:58;19.30;1.00
5459;DHT22;2752;49.992;8.422;2023-05-07T08:46:31;19.30;1.00
5459;DHT22;2752;49.992;8.422;2023-05-07T08:48:58;19.40;1.00
5459;DHT22;2752;49.992;8.422;2023-05-07T08:51:25;19.50;1.00
5459;DHT22;2752;49.992;8.422;2023-05-07T08:53:52;19.40;1.00
5459;DHT22;2752;49.992;8.422;2023-05-07T08:56:19;19.60;1.00
5459;DHT22;2752;49.992;8.422;2023-05-07T08:58:47;19.80;1.00
5459;DHT22;2752;49.992;8.422;2023-05-07T09:01:15;19.90;1.00
5459;DHT22;2752;49.992;8.422;2023-05-07T09:03:45;20.00;1.00
5459;DHT22;2752;49.992;8.422;2023-05-07T09:06:12;20.00;1.00
5459;DHT22;2752;49.992;8.422;2023-05-07T09:08:38;20.00;1.00
5459;DHT22;2752;49.992;8.422;2023-05-07T09:11:05;20.10;1.00
5459;DHT22;2752;49.992;8.422;2023-05-07T09:13:32;20.10;1.00
5459;DHT22;2752;49.992;8.422;2023-05-07T09:16:06;20.10;1.00
5459;DHT22;2752;49.992;8.422;2023-05-07T09:18:40;20.30;1.00
5459;DHT22;2752;49.992;8.422;2023-05-07T09:21:10;20.50;1.00
5459;DHT22;2752;49.992;8.422;2023-05-07T09:23:37;20.70;1.00
5459;DHT22;2752;49.992;8.422;2023-05-07T09:26:04;20.80;1.00
5459;DHT22;2752;49.992;8.422;2023-05-07T09:28:33;20.80;1.00
5459;DHT22;2752;49.992;8.422;2023-05-07T09:31:01;20.80;1.00
5459;DHT22;2752;49.992;8.422;2023-05-07T09:33:27;21.00;1.00
5459;DHT22;2752;49.992;8.422;2023-05-07T09:35:55;21.40;1.00
5459;DHT22;2752;49.992;8.422;2023-05-07T09:38:23;21.40;1.00
5459;DHT22;2752;49.992;8.422;2023-05-07T09:41:01;21.70;1.00
5459;DHT22;2752;49.992;8.422;2023-05-07T09:43:31;22.00;1.00
5459;DHT22;2752;49.992;8.422;2023-05-07T09:46:06;21.80;1.00
5459;DHT22;2752;49.992;8.422;2023-05-07T09:48:37;21.90;1.00
5459;DHT22;2752;49.992;8.422;2023-05-07T09:51:11;22.00;1.00
5459;DHT22;2752;49.992;8.422;2023-05-07T09:53:40;22.00;1.00
5459;DHT22;2752;49.992;8.422;2023-05-07T09:56:07;21.90;1.00
5459;DHT22;2752;49.992;8.422;2023-05-07T09:58:37;21.80;1.00
5459;DHT22;2752;49.992;8.422;2023-05-07T10:01:04;21.90;1.00
5459;DHT22;2752;49.992;8.422;2023-05-07T10:03:33;22.00;1.00
5459;DHT22;2752;49.992;8.422;2023-05-07T10:06:02;22.10;1.00
5459;DHT22;2752;49.992;8.422;2023-05-07T10:08:30;22.20;1.00
5459;DHT22;2752;49.992;8.422;2023-05-07T10:10:59;22.30;1.00
5459;DHT22;2752;49.992;8.422;2023-05-07T10:13:26;22.40;1.00
5459;DHT22;2752;49.992;8.422;2023-05-07T10:15:53;22.40;1.00
5459;DHT22;2752;49.992;8.422;2023-05-07T10:18:21;22.50;1.00
5459;DHT22;2752;49.992;8.422;2023-05-07T10:20:51;22.60;1.00
5459;DHT22;2752;49.992;8.422;2023-05-07T10:23:23;22.40;1.00
5459;DHT22;2752;49.992;8.422;2023-05-07T10:25:50;22.40;1.00
5459;DHT22;2752;49.992;8.422;2023-05-07T10:28:20;22.50;1.00
5459;DHT22;2752;49.992;8.422;2023-05-07T10:30:57;22.60;1.00
5459;DHT22;2752;49.992;8.422;2023-05-07T10:33:28;22.80;1.00
5459;DHT22;2752;49.992;8.422;2023-05-07T10:35:58;22.90;1.00
5459;DHT22;2752;49.992;8.422;2023-05-07T10:38:26;23.00;1.00
5459;DHT22;2752;49.992;8.422;2023-05-07T10:40:53;23.00;1.00
5459;DHT22;2752;49.992;8.422;2023-05-07T10:43:21;22.80;1.00
5459;DHT22;2752;49.992;8.422;2023-05-07T10:46:09;22.90;1.00
5459;DHT22;2752;49.992;8.422;2023-05-07T10:49:09;23.10;1.00
5459;DHT22;2752;49.992;8.422;2023-05-07T10:51:36;23.10;1.00
5459;DHT22;2752;49.992;8.422;2023-05-07T10:54:22;23.20;1.00
5459;DHT22;2752;49.992;8.422;2023-05-07T10:56:50;23.30;1.00
5459;DHT22;2752;49.992;8.422;2023-05-07T10:59:38;23.50;1.00
5459;DHT22;2752;49.992;8.422;2023-05-07T11:02:08;24.10;1.00
5459;DHT22;2752;49.992;8.422;2023-05-07T11:04:36;24.20;1.00
5459;DHT22;2752;49.992;8.422;2023-05-07T11:07:24;24.20;1.00
5459;DHT22;2752;49.992;8.422;2023-05-07T11:09:55;24.10;1.00
5459;DHT22;2752;49.992;8.422;2023-05-07T11:12:51;24.30;1.00
5459;DHT22;2752;49.992;8.422;2023-05-07T11:15:36;24.10;1.00
5459;DHT22;2752;49.992;8.422;2023-05-07T11:18:03;24.00;1.00
5459;DHT22;2752;49.992;8.422;2023-05-07T11:20:57;24.30;1.00
5459;DHT22;2752;49.992;8.422;2023-05-07T11:23:56;24.50;1.00
5459;DHT22;2752;49.992;8.422;2023-05-07T11:26:24;24.40;1.00
5459;DHT22;2752;49.992;8.422;2023-05-07T11:28:52;24.30;1.00
5459;DHT22;2752;49.992;8.422;2023-05-07T11:31:25;24.50;1.00
5459;DHT22;2752;49.992;8.422;2023-05-07T11:33:54;24.50;1.00
5459;DHT22;2752;49.992;8.422;2023-05-07T11:36:22;24.60;1.00
5459;DHT22;2752;49.992;8.422;2023-05-07T11:38:49;24.80;1.00
5459;DHT22;2752;49.992;8.422;2023-05-07T11:41:16;25.10;1.00
5459;DHT22;2752;49.992;8.422;2023-05-07T11:43:58;25.00;1.00
5459;DHT22;2752;49.992;8.422;2023-05-07T11:46:27;25.20;1.00
5459;DHT22;2752;49.992;8.422;2023-05-07T11:48:54;25.40;1.00
5459;DHT22;2752;49.992;8.422;2023-05-07T11:51:23;25.40;1.00
5459;DHT22;2752;49.992;8.422;2023-05-07T11:53:51;25.50;1.00
5459;DHT22;2752;49.992;8.422;2023-05-07T11:56:19;25.60;1.00
5459;DHT22;2752;49.992;8.422;2023-05-07T11:58:47;25.50;1.00
5459;DHT22;2752;49.992;8.422;2023-05-07T12:01:15;25.60;1.00
5459;DHT22;2752;49.992;8.422;2023-05-07T12:03:45;25.60;1.00
5459;DHT22;2752;49.992;8.422;2023-05-07T12:06:14;25.90;1.00
5459;DHT22;2752;49.992;8.422;2023-05-07T12:08:42;26.20;1.00
5459;DHT22;2752;49.992;8.422;2023-05-07T12:11:12;26.10;1.00
5459;DHT22;2752;49.992;8.422;2023-05-07T12:13:38;26.00;1.00
5459;DHT22;2752;49.992;8.422;2023-05-07T12:16:06;26.30;1.00
5459;DHT22;2752;49.992;8.422;2023-05-07T12:18:35;26.50;1.00
5459;DHT22;2752;49.992;8.422;2023-05-07T12:21:04;26.30;1.00
5459;DHT22;2752;49.992;8.422;2023-05-07T12:23:31;26.20;1.00
5459;DHT22;2752;49.992;8.422;2023-05-07T12:25:59;26.10;1.00
5459;DHT22;2752;49.992;8.422;2023-05-07T12:28:26;26.10;1.00
5459;DHT22;2752;49.992;8.422;2023-05-07T12:30:52;26.10;1.00
5459;DHT22;2752;49.992;8.422;2023-05-07T12:33:24;26.10;1.00
5459;DHT22;2752;49.992;8.422;2023-05-07T12:35:54;25.90;1.00
5459;DHT22;2752;49.992;8.422;2023-05-07T12:38:22;26.00;1.00
5459;DHT22;2752;49.992;8.422;2023-05-07T12:40:50;25.90;1.00
5459;DHT22;2752;49.992;8.422;2023-05-07T12:43:17;25.70;1.00
5459;DHT22;2752;49.992;8.422;2023-05-07T12:45:46;25.60;1.00
5459;DHT22;2752;49.992;8.422;2023-05-07T12:48:13;25.40;1.00
5459;DHT22;2752;49.992;8.422;2023-05-07T12:50:39;25.50;1.00
5459;DHT22;2752;49.992;8.422;2023-05-07T12:53:07;25.70;1.00
5459;DHT22;2752;49.992;8.422;2023-05-07T12:55:42;25.70;1.00
5459;DHT22;2752;49.992;8.422;2023-05-07T12:58:15;26.00;1.00
5459;DHT22;2752;49.992;8.422;2023-05-07T13:00:42;26.20;1.00
5459;DHT22;2752;49.992;8.422;2023-05-07T13:03:09;26.40;1.00
5459;DHT22;2752;49.992;8.422;2023-05-07T13:05:36;26.20;1.00
5459;DHT22;2752;49.992;8.422;2023-05-07T13:08:03;26.20;1.00
5459;DHT22;2752;49.992;8.422;2023-05-07T13:10:29;26.30;1.00
5459;DHT22;2752;49.992;8.422;2023-05-07T13:12:57;26.50;1.00
5459;DHT22;2752;49.992;8.422;2023-05-07T13:15:24;26.50;1.00
5459;DHT22;2752;49.992;8.422;2023-05-07T13:17:52;26.40;1.00
5459;DHT22;2752;49.992;8.422;2023-05-07T13:20:19;26.40;1.00
5459;DHT22;2752;49.992;8.422;2023-05-07T13:22:45;26.40;1.00
5459;DHT22;2752;49.992;8.422;2023-05-07T13:25:12;26.10;1.00
5459;DHT22;2752;49.992;8.422;2023-05-07T13:27:39;25.90;1.00
5459;DHT22;2752;49.992;8.422;2023-05-07T13:30:08;25.80;1.00
5459;DHT22;2752;49.992;8.422;2023-05-07T13:32:34;25.90;1.00
5459;DHT22;2752;49.992;8.422;2023-05-07T13:35:01;26.00;1.00
5459;DHT22;2752;49.992;8.422;2023-05-07T13:37:28;26.00;1.00
5459;DHT22;2752;49.992;8.422;2023-05-07T13:39:55;26.10;1.00
5459;DHT22;2752;49.992;8.422;2023-05-07T13:42:21;26.10;1.00
5459;DHT22;2752;49.992;8.422;2023-05-07T13:44:48;26.40;1.00
5459;DHT22;2752;49.992;8.422;2023-05-07T13:47:16;26.50;1.00
5459;DHT22;2752;49.992;8.422;2023-05-07T13:49:43;26.80;1.00
5459;DHT22;2752;49.992;8.422;2023-05-07T13:52:09;26.90;1.00
5459;DHT22;2752;49.992;8.422;2023-05-07T13:54:36;26.90;1.00
5459;DHT22;2752;49.992;8.422;2023-05-07T13:57:03;27.00;1.00
5459;DHT22;2752;49.992;8.422;2023-05-07T13:59:30;27.00;1.00
5459;DHT22;2752;49.992;8.422;2023-05-07T14:01:56;27.30;1.00
5459;DHT22;2752;49.992;8.422;2023-05-07T14:04:24;27.30;1.00
5459;DHT22;2752;49.992;8.422;2023-05-07T14:06:51;27.40;1.00
5459;DHT22;2752;49.992;8.422;2023-05-07T14:09:17;27.40;1.00
5459;DHT22;2752;49.992;8.422;2023-05-07T14:11:44;27.30;1.00
5459;DHT22;2752;49.992;8.422;2023-05-07T14:14:12;27.20;1.00
5459;DHT22;2752;49.992;8.422;2023-05-07T14:16:39;26.90;1.00
5459;DHT22;2752;49.992;8.422;2023-05-07T14:19:06;26.80;1.00
5459;DHT22;2752;49.992;8.422;2023-05-07T14:21:34;26.50;1.00
5459;DHT22;2752;49.992;8.422;2023-05-07T14:24:01;26.20;1.00
5459;DHT22;2752;49.992;8.422;2023-05-07T14:26:27;26.20;1.00
5459;DHT22;2752;49.992;8.422;2023-05-07T14:28:54;26.30;1.00
5459;DHT22;2752;49.992;8.422;2023-05-07T14:31:23;26.20;1.00
5459;DHT22;2752;49.992;8.422;2023-05-07T14:33:50;26.20;1.00
5459;DHT22;2752;49.992;8.422;2023-05-07T14:36:17;26.10;1.00
5459;DHT22;2752;49.992;8.422;2023-05-07T14:38:46;26.00;1.00
5459;DHT22;2752;49.992;8.422;2023-05-07T14:41:13;26.00;1.00
5459;DHT22;2752;49.992;8.422;2023-05-07T14:43:40;26.00;1.00
5459;DHT22;2752;49.992;8.422;2023-05-07T14:46:06;25.70;1.00
5459;DHT22;2752;49.992;8.422;2023-05-07T14:48:33;25.60;1.00
5459;DHT22;2752;49.992;8.422;2023-05-07T14:51:00;25.60;1.00
5459;DHT22;2752;49.992;8.422;2023-05-07T14:53:26;25.50;1.00
5459;DHT22;2752;49.992;8.422;2023-05-07T14:55:54;25.30;1.00
5459;DHT22;2752;49.992;8.422;2023-05-07T14:58:21;25.20;1.00
5459;DHT22;2752;49.992;8.422;2023-05-07T15:00:48;25.10;1.00
5459;DHT22;2752;49.992;8.422;2023-05-07T15:03:15;24.90;1.00
5459;DHT22;2752;49.992;8.422;2023-05-07T15:05:41;25.00;1.00
5459;DHT22;2752;49.992;8.422;2023-05-07T15:08:08;24.80;1.00
5459;DHT22;2752;49.992;8.422;2023-05-07T15:10:36;24.60;1.00
5459;DHT22;2752;49.992;8.422;2023-05-07T15:13:07;24.70;1.00
5459;DHT22;2752;49.992;8.422;2023-05-07T15:18:02;24.70;1.00
5459;DHT22;2752;49.992;8.422;2023-05-07T15:20:29;24.70;1.00
5459;DHT22;2752;49.992;8.422;2023-05-07T15:22:55;24.60;1.00
5459;DHT22;2752;49.992;8.422;2023-05-07T15:25:22;24.60;1.00
5459;DHT22;2752;49.992;8.422;2023-05-07T15:27:49;24.50;1.00
5459;DHT22;2752;49.992;8.422;2023-05-07T15:30:18;24.50;1.00
5459;DHT22;2752;49.992;8.422;2023-05-07T15:32:46;24.30;1.00
5459;DHT22;2752;49.992;8.422;2023-05-07T15:35:12;24.20;1.00
5459;DHT22;2752;49.992;8.422;2023-05-07T15:37:39;24.10;1.00
5459;DHT22;2752;49.992;8.422;2023-05-07T15:40:07;24.10;1.00
5459;DHT22;2752;49.992;8.422;2023-05-07T15:42:34;24.10;1.00
5459;DHT22;2752;49.992;8.422;2023-05-07T15:45:01;24.00;1.00
5459;DHT22;2752;49.992;8.422;2023-05-07T15:47:32;24.10;1.00
5459;DHT22;2752;49.992;8.422;2023-05-07T15:49:59;24.00;1.00
5459;DHT22;2752;49.992;8.422;2023-05-07T15:52:26;24.00;1.00
5459;DHT22;2752;49.992;8.422;2023-05-07T15:54:53;24.00;1.00
5459;DHT22;2752;49.992;8.422;2023-05-07T15:57:20;24.00;1.00
5459;DHT22;2752;49.992;8.422;2023-05-07T15:59:47;23.90;1.00
5459;DHT22;2752;49.992;8.422;2023-05-07T16:02:14;23.90;1.00
5459;DHT22;2752;49.992;8.422;2023-05-07T16:04:42;23.80;1.00
5459;DHT22;2752;49.992;8.422;2023-05-07T16:07:08;23.70;1.00
5459;DHT22;2752;49.992;8.422;2023-05-07T16:09:35;23.60;1.00
5459;DHT22;2752;49.992;8.422;2023-05-07T16:12:02;23.60;1.00
5459;DHT22;2752;49.992;8.422;2023-05-07T16:14:29;23.60;1.00
5459;DHT22;2752;49.992;8.422;2023-05-07T16:16:56;23.60;1.00
5459;DHT22;2752;49.992;8.422;2023-05-07T16:19:22;23.50;1.00
5459;DHT22;2752;49.992;8.422;2023-05-07T16:21:50;23.50;1.00
5459;DHT22;2752;49.992;8.422;2023-05-07T16:26:44;22.60;1.00